Time;durP1;ratioP1;P1;durP2;ratioP2;P2;SDS_P1;SDS_P2;PMS_P1;PMS_P2;Temp;Humidity;BMP_temperature;BMP_pressure;BME280_temperature;BME280_humidity;BME280_pressure;Samples;Min_cycle;Max_cycle;Signal;HPM_P1;HPM_P2
2023/01/31 00:02:56;;;;;;;10.60;1.70;;;;;;;1.53;97.61;98390.56;109641;1253;70665;-69
2023/01/31 00:05:47;;;;;;;11.20;2.20;;;;;;;1.51;97.53;98387.92;109532;1252;72413;-70
2023/01/31 00:08:35;;;;;;;12.40;1.80;;;;;;;1.49;97.62;98389.11;109535;1254;58935;-70
2023/01/31 00:11:26;;;;;;;11.70;1.70;;;;;;;1.48;97.45;98396.54;109637;1254;60140;-69
2023/01/31 00:14:19;;;;;;;10.10;1.90;;;;;;;1.46;97.42;98396.48;109472;1252;74404;-69
2023/01/31 00:17:07;;;;;;;13.30;1.70;;;;;;;1.44;97.47;98399.27;109581;1254;67817;-68
2023/01/31 00:19:57;;;;;;;11.50;2.00;;;;;;;1.42;97.67;98401.30;109575;1253;72430;-69
2023/01/31 00:22:46;;;;;;;13.50;2.30;;;;;;;1.41;97.55;98402.94;109454;1252;58172;-69
2023/01/31 00:25:36;;;;;;;11.40;1.50;;;;;;;1.40;97.47;98410.52;109573;1252;58738;-69
2023/01/31 00:28:25;;;;;;;9.20;1.60;;;;;;;1.38;97.60;98415.88;109545;1253;72276;-69
2023/01/31 00:31:15;;;;;;;12.30;2.00;;;;;;;1.37;97.24;98417.02;109608;1252;66493;-69
2023/01/31 00:34:03;;;;;;;13.80;2.00;;;;;;;1.35;97.34;98421.47;109506;1254;72610;-69
2023/01/31 00:36:51;;;;;;;12.10;1.60;;;;;;;1.35;97.14;98424.98;109556;1252;58128;-70
2023/01/31 00:39:38;;;;;;;13.20;2.00;;;;;;;1.35;97.09;98427.79;109636;1253;61588;-70
2023/01/31 00:42:28;;;;;;;7.20;1.10;;;;;;;1.34;97.07;98427.01;109581;1253;73746;-68
2023/01/31 00:45:19;;;;;;;10.60;1.70;;;;;;;1.30;97.21;98429.51;109594;1253;68142;-69
2023/01/31 00:48:09;;;;;;;12.50;1.90;;;;;;;1.32;97.15;98436.02;108820;1252;1002926;-69
2023/01/31 00:51:00;;;;;;;13.00;2.10;;;;;;;1.33;96.94;98438.58;109592;1253;58543;-69
2023/01/31 00:53:49;;;;;;;8.10;1.50;;;;;;;1.31;96.92;98442.53;109575;1252;60479;-69
2023/01/31 00:56:37;;;;;;;10.80;1.70;;;;;;;1.30;97.11;98451.04;109370;1254;72935;-69
2023/01/31 00:59:25;;;;;;;12.80;1.90;;;;;;;1.27;97.00;98457.48;109603;1252;68922;-69
2023/01/31 01:02:13;;;;;;;13.70;1.70;;;;;;;1.27;96.96;98463.61;108826;1254;1002385;-69
2023/01/31 01:05:01;;;;;;;12.40;1.70;;;;;;;1.27;96.94;98466.23;109530;1253;58027;-69
2023/01/31 01:07:49;;;;;;;17.20;2.20;;;;;;;1.27;96.82;98466.92;109590;1254;60264;-70
2023/01/31 01:10:38;;;;;;;12.80;1.90;;;;;;;1.28;96.72;98473.50;109550;1253;72657;-69
2023/01/31 01:13:26;;;;;;;6.50;1.40;;;;;;;1.27;96.57;98476.19;108797;1252;1002675;-70
2023/01/31 01:16:19;;;;;;;14.80;2.30;;;;;;;1.26;96.56;98482.35;109551;1253;71483;-70
2023/01/31 01:19:14;;;;;;;11.40;1.70;;;;;;;1.25;96.37;98482.25;109477;1252;58009;-70
2023/01/31 01:22:03;;;;;;;8.00;1.10;;;;;;;1.24;96.26;98489.48;109578;1252;61219;-68
2023/01/31 01:24:53;;;;;;;9.60;1.60;;;;;;;1.23;96.12;98492.50;109596;1254;75064;-67
2023/01/31 01:27:42;;;;;;;7.70;1.30;;;;;;;1.24;95.82;98498.23;109512;1253;66906;-68
2023/01/31 01:30:31;;;;;;;9.70;1.60;;;;;;;1.22;95.68;98504.50;109572;1252;70177;-68
2023/01/31 01:33:20;;;;;;;10.30;1.80;;;;;;;1.21;95.42;98520.98;109543;1253;58637;-68
2023/01/31 01:36:16;;;;;;;7.20;1.40;;;;;;;1.21;94.93;98522.88;109516;1253;59943;-69
2023/01/31 01:39:09;;;;;;;7.70;1.60;;;;;;;1.22;94.89;98533.70;109450;1253;73593;-68
2023/01/31 01:41:57;;;;;;;9.10;1.60;;;;;;;1.22;94.62;98538.76;109397;1252;66387;-69
2023/01/31 01:44:59;;;;;;;11.00;1.80;;;;;;;1.20;94.44;98538.69;109609;1252;72634;-68
2023/01/31 01:47:53;;;;;;;10.10;1.60;;;;;;;1.16;94.25;98544.33;109543;1253;58107;-69
2023/01/31 01:50:48;;;;;;;10.10;1.40;;;;;;;1.13;94.14;98546.79;109577;1253;61102;-69
2023/01/31 01:53:42;;;;;;;10.70;1.30;;;;;;;1.12;93.62;98543.56;109437;1252;73942;-70
2023/01/31 01:56:41;;;;;;;9.40;1.40;;;;;;;1.11;93.40;98546.57;109579;1251;67698;-69
2023/01/31 01:59:47;;;;;;;8.00;1.70;;;;;;;1.08;93.41;98549.89;109588;1252;71083;-68
2023/01/31 02:02:36;;;;;;;9.00;1.20;;;;;;;1.07;93.36;98551.71;109458;1253;58091;-68
2023/01/31 02:05:38;;;;;;;10.80;1.80;;;;;;;1.07;93.05;98559.45;109625;1253;59015;-69
2023/01/31 02:08:31;;;;;;;9.80;1.80;;;;;;;1.05;93.08;98563.22;109460;1254;73814;-69
2023/01/31 02:11:29;;;;;;;6.40;1.30;;;;;;;1.02;92.90;98560.93;109307;1252;67783;-69
2023/01/31 02:14:18;;;;;;;10.60;1.70;;;;;;;1.00;92.85;98568.03;109552;1253;72431;-70
2023/01/31 02:17:13;;;;;;;8.90;1.70;;;;;;;0.98;92.65;98578.81;109576;1252;59804;-70
2023/01/31 02:20:30;;;;;;;9.20;1.50;;;;;;;0.98;92.44;98583.89;109455;1253;61537;-69
2023/01/31 02:23:56;;;;;;;9.10;1.70;;;;;;;0.97;92.50;98591.11;109550;1252;72885;-69
2023/01/31 02:27:36;;;;;;;7.90;1.60;;;;;;;0.93;92.64;98600.61;108912;1261;68583;-68
2023/01/31 02:31:08;;;;;;;12.90;1.70;;;;;;;0.92;92.70;98605.41;108608;1265;73533;-69
2023/01/31 02:34:02;;;;;;;10.80;1.60;;;;;;;0.90;92.94;98614.42;108646;1265;58519;-69
2023/01/31 02:37:20;;;;;;;10.20;1.50;;;;;;;0.88;92.88;98613.64;108657;1266;59979;-68
2023/01/31 02:40:41;;;;;;;9.10;1.50;;;;;;;0.88;92.92;98618.22;108617;1265;72659;-69
2023/01/31 02:47:23;;;;;;;12.80;2.10;;;;;;;0.88;92.60;98622.77;107865;1265;1002925;-69
2023/01/31 02:50:37;;;;;;;6.30;1.10;;;;;;;0.88;92.37;98624.52;108383;1266;59567;-69
2023/01/31 02:53:47;;;;;;;7.10;1.30;;;;;;;0.86;92.40;98629.86;108676;1265;61082;-69
2023/01/31 02:56:40;;;;;;;8.90;1.60;;;;;;;0.83;91.98;98635.25;108607;1265;75046;-69
2023/01/31 02:59:34;;;;;;;7.20;1.20;;;;;;;0.84;91.50;98643.59;108368;1265;201091;-70
2023/01/31 03:02:25;;;;;;;7.20;1.50;;;;;;;0.83;91.52;98651.70;108599;1265;72129;-69
2023/01/31 03:05:16;;;;;;;8.60;1.30;;;;;;;0.78;91.32;98651.61;108982;1259;58787;-68
2023/01/31 03:08:06;;;;;;;8.70;1.40;;;;;;;0.80;91.41;98664.75;109548;1252;58746;-69
2023/01/31 03:11:03;;;;;;;9.00;1.50;;;;;;;0.81;91.20;98665.08;109615;1252;74012;-69
2023/01/31 03:14:08;;;;;;;6.50;1.30;;;;;;;0.81;90.99;98667.35;109374;1252;67686;-69
2023/01/31 03:17:31;;;;;;;10.10;1.50;;;;;;;0.80;90.70;98669.48;109394;1253;72607;-69
2023/01/31 03:20:26;;;;;;;9.30;1.40;;;;;;;0.78;90.56;98669.60;109573;1252;58947;-68
2023/01/31 03:23:28;;;;;;;8.90;1.30;;;;;;;0.77;90.73;98667.56;109608;1251;59001;-71
2023/01/31 03:26:19;;;;;;;8.80;1.30;;;;;;;0.77;90.29;98665.52;109618;1252;73526;-69
2023/01/31 03:29:12;;;;;;;5.40;1.10;;;;;;;0.75;90.47;98663.66;109615;1252;66673;-69
2023/01/31 03:32:29;;;;;;;8.70;1.40;;;;;;;0.73;90.46;98675.17;109422;1252;72398;-69
2023/01/31 03:35:24;;;;;;;7.80;1.50;;;;;;;0.71;90.55;98680.35;109505;1251;58127;-70
2023/01/31 03:38:21;;;;;;;7.20;1.30;;;;;;;0.69;90.57;98688.50;108684;1252;1002818;-70
2023/01/31 03:41:24;;;;;;;7.90;1.20;;;;;;;0.67;90.64;98688.06;109600;1252;71299;-69
2023/01/31 03:44:33;;;;;;;7.60;1.40;;;;;;;0.66;90.61;98687.77;108627;1253;1002661;-68
2023/01/31 03:47:37;;;;;;;7.90;1.30;;;;;;;0.65;90.83;98690.30;109468;1252;71493;-69
2023/01/31 03:50:43;;;;;;;6.50;1.10;;;;;;;0.61;90.75;98692.09;109457;1253;58092;-68
2023/01/31 03:53:48;;;;;;;6.00;1.10;;;;;;;0.60;90.85;98694.05;108694;1253;1002712;-69
2023/01/31 03:56:53;;;;;;;6.50;1.10;;;;;;;0.59;90.39;98691.53;109588;1253;73588;-70
2023/01/31 03:59:47;;;;;;;6.50;1.40;;;;;;;0.60;89.93;98694.59;109551;1253;68915;-70
2023/01/31 04:02:37;;;;;;;6.50;1.20;;;;;;;0.63;89.96;98694.77;109384;1254;72617;-69
2023/01/31 04:05:30;;;;;;;9.00;1.30;;;;;;;0.63;89.74;98695.83;109488;1252;58243;-70
2023/01/31 04:08:19;;;;;;;5.40;1.20;;;;;;;0.61;89.60;98702.36;109583;1252;60209;-70
2023/01/31 04:11:14;;;;;;;6.40;1.30;;;;;;;0.61;89.51;98710.61;109470;1251;74901;-69
2023/01/31 04:14:03;;;;;;;5.80;1.30;;;;;;;0.60;89.11;98714.83;108822;1252;1002814;-68
2023/01/31 04:16:54;;;;;;;6.90;1.50;;;;;;;0.60;89.00;98718.66;109548;1252;71379;-68
2023/01/31 04:19:42;;;;;;;6.30;1.00;;;;;;;0.61;88.63;98713.39;109501;1252;58544;-71
2023/01/31 04:22:30;;;;;;;6.00;1.20;;;;;;;0.61;88.47;98719.13;109614;1252;58734;-69
2023/01/31 04:25:18;;;;;;;6.70;1.20;;;;;;;0.61;88.55;98722.48;109543;1253;73598;-69
2023/01/31 04:28:07;;;;;;;5.30;1.20;;;;;;;0.59;88.36;98725.88;109598;1252;66400;-70
2023/01/31 04:30:56;;;;;;;5.80;1.40;;;;;;;0.58;88.35;98733.98;109552;1253;72405;-69
2023/01/31 04:33:47;;;;;;;7.30;1.20;;;;;;;0.58;88.51;98742.56;109576;1251;58151;-69
2023/01/31 04:36:35;;;;;;;9.80;1.20;;;;;;;0.57;88.58;98755.88;109572;1252;58680;-70
2023/01/31 04:39:23;;;;;;;7.00;1.20;;;;;;;0.56;88.56;98759.27;109607;1252;74424;-70
2023/01/31 04:42:11;;;;;;;8.20;1.80;;;;;;;0.54;88.48;98770.37;109621;1251;66644;-68
2023/01/31 04:44:59;;;;;;;8.70;1.60;;;;;;;0.50;88.62;98769.88;109572;1251;72594;-69
2023/01/31 04:47:47;;;;;;;8.40;1.60;;;;;;;0.53;88.72;98767.11;109554;1252;58476;-69
2023/01/31 04:50:35;;;;;;;6.70;1.20;;;;;;;0.50;88.54;98763.75;109583;1252;60391;-69
2023/01/31 04:53:23;;;;;;;9.40;1.50;;;;;;;0.50;88.36;98761.29;109588;1252;75037;-68
2023/01/31 04:56:11;;;;;;;7.70;1.40;;;;;;;0.51;88.11;98767.75;109622;1252;67577;-69
2023/01/31 04:58:59;;;;;;;6.80;1.70;;;;;;;0.49;87.81;98772.70;109556;1251;72407;-69
2023/01/31 05:01:47;;;;;;;6.50;1.30;;;;;;;0.50;87.97;98780.16;109533;1251;59660;-70
2023/01/31 05:04:35;;;;;;;8.50;1.20;;;;;;;0.50;87.71;98785.92;108817;1252;1002088;-70
2023/01/31 05:07:23;;;;;;;7.20;1.30;;;;;;;0.51;87.87;98788.14;109556;1252;74534;-70
2023/01/31 05:10:11;;;;;;;6.90;1.50;;;;;;;0.51;87.86;98796.52;109631;1252;67844;-69
2023/01/31 05:12:59;;;;;;;6.70;1.30;;;;;;;0.47;87.94;98796.59;109549;1252;73406;-69
2023/01/31 05:15:48;;;;;;;10.30;1.60;;;;;;;0.49;88.10;98804.63;109599;1252;58942;-70
2023/01/31 05:18:37;;;;;;;6.90;1.20;;;;;;;0.50;88.07;98809.85;109585;1252;60301;-70
2023/01/31 05:21:25;;;;;;;10.50;2.20;;;;;;;0.51;88.27;98812.73;109487;1251;74026;-70
2023/01/31 05:24:13;;;;;;;7.10;1.50;;;;;;;0.50;88.44;98813.48;109563;1252;66699;-70
2023/01/31 05:27:04;;;;;;;9.00;1.50;;;;;;;0.49;88.72;98818.77;109593;1251;73660;-69
2023/01/31 05:29:52;;;;;;;10.60;1.50;;;;;;;0.49;88.88;98831.88;109547;1252;58175;-69
2023/01/31 05:32:40;;;;;;;10.00;1.40;;;;;;;0.47;89.17;98835.27;109533;1252;60166;-70
2023/01/31 05:35:29;;;;;;;10.70;1.50;;;;;;;0.46;89.50;98839.38;109551;1252;74879;-71
2023/01/31 05:38:18;;;;;;;8.90;1.50;;;;;;;0.48;89.69;98849.59;109484;1254;68019;-70
2023/01/31 05:41:06;;;;;;;8.80;1.50;;;;;;;0.47;90.01;98852.39;109579;1251;71458;-70
2023/01/31 05:43:54;;;;;;;8.30;1.10;;;;;;;0.47;90.47;98847.39;109603;1251;58087;-69
2023/01/31 05:46:42;;;;;;;7.90;1.50;;;;;;;0.47;90.56;98848.92;108816;1251;1002992;-68
2023/01/31 05:49:32;;;;;;;8.70;1.40;;;;;;;0.45;90.72;98852.50;109568;1252;72260;-70
2023/01/31 05:52:20;;;;;;;7.70;1.30;;;;;;;0.46;90.95;98856.45;109577;1252;66543;-69
2023/01/31 05:55:09;;;;;;;10.80;1.60;;;;;;;0.47;91.17;98869.89;109564;1253;71096;-69
2023/01/31 05:57:57;;;;;;;9.20;1.50;;;;;;;0.47;91.20;98867.08;109586;1252;58194;-70
2023/01/31 06:00:48;;;;;;;10.90;1.70;;;;;;;0.45;91.35;98872.58;109599;1252;58144;-71
2023/01/31 06:03:36;;;;;;;12.10;2.40;;;;;;;0.43;91.52;98877.77;109538;1252;72487;-68
2023/01/31 06:06:26;;;;;;;10.10;1.60;;;;;;;0.41;91.91;98883.83;109509;1252;66189;-71
2023/01/31 06:09:14;;;;;;;9.00;1.70;;;;;;;0.40;92.46;98885.79;109522;1252;73612;-69
2023/01/31 06:12:02;;;;;;;11.80;1.80;;;;;;;0.42;92.53;98894.77;109546;1251;58586;-71
2023/01/31 06:14:54;;;;;;;6.80;1.50;;;;;;;0.45;92.72;98906.29;109565;1252;59129;-71
2023/01/31 06:17:42;;;;;;;8.00;1.90;;;;;;;0.46;92.44;98912.89;109564;1252;73876;-72
2023/01/31 06:20:33;;;;;;;8.60;1.60;;;;;;;0.44;92.91;98914.02;109539;1252;68063;-68
2023/01/31 06:23:21;;;;;;;8.40;1.40;;;;;;;0.43;92.97;98915.10;109432;1253;73430;-69
2023/01/31 06:26:13;;;;;;;12.40;1.90;;;;;;;0.43;92.77;98914.08;109493;1251;58478;-70
2023/01/31 06:29:01;;;;;;;13.40;2.40;;;;;;;0.43;92.72;98914.77;109535;1251;60015;-72
2023/01/31 06:31:52;;;;;;;10.80;1.80;;;;;;;0.42;92.62;98912.73;109534;1252;73965;-72
2023/01/31 06:34:40;;;;;;;12.20;1.60;;;;;;;0.46;92.54;98924.05;109580;1252;67902;-69
2023/01/31 06:37:31;;;;;;;11.30;1.90;;;;;;;0.46;92.37;98925.40;109474;1251;71108;-70
2023/01/31 06:40:19;;;;;;;12.70;2.20;;;;;;;0.47;92.32;98932.01;109525;1252;58116;-71
2023/01/31 06:43:07;;;;;;;10.30;1.70;;;;;;;0.47;92.30;98930.09;108782;1251;1003040;-70
2023/01/31 06:45:55;;;;;;;8.80;2.00;;;;;;;0.47;92.31;98934.98;109558;1252;73464;-68
2023/01/31 06:48:44;;;;;;;11.00;1.90;;;;;;;0.49;92.21;98942.36;109576;1252;66658;-69
2023/01/31 06:51:31;;;;;;;11.20;2.50;;;;;;;0.52;91.99;98947.13;109546;1251;73592;-70
2023/01/31 06:54:19;;;;;;;7.90;1.80;;;;;;;0.54;91.70;98949.97;109517;1251;58321;-69
2023/01/31 06:57:07;;;;;;;10.40;1.60;;;;;;;0.58;91.59;98956.35;109581;1252;60442;-71
2023/01/31 06:59:55;;;;;;;10.60;1.80;;;;;;;0.63;91.45;98953.80;109538;1252;73838;-69
2023/01/31 07:02:46;;;;;;;9.30;1.70;;;;;;;0.66;91.65;98958.52;109539;1251;65635;-69
2023/01/31 07:05:33;;;;;;;12.10;2.20;;;;;;;0.69;91.62;98961.02;109505;1252;72649;-70
2023/01/31 07:08:21;;;;;;;11.90;2.30;;;;;;;0.73;91.47;98964.45;109600;1252;58717;-69
2023/01/31 07:11:09;;;;;;;10.40;1.80;;;;;;;0.78;91.67;98971.68;109542;1252;59313;-69
2023/01/31 07:13:57;;;;;;;9.50;2.10;;;;;;;0.84;91.64;98981.65;109585;1251;73899;-70
2023/01/31 07:16:45;;;;;;;10.50;2.50;;;;;;;0.92;91.91;98980.88;109538;1252;68844;-70
2023/01/31 07:19:33;;;;;;;13.20;2.80;;;;;;;0.99;91.61;98981.40;108821;1252;1002288;-70
2023/01/31 07:22:21;;;;;;;13.50;2.80;;;;;;;1.02;92.03;98978.09;108762;1252;1002769;-70
2023/01/31 07:25:08;;;;;;;15.50;2.60;;;;;;;1.12;91.87;98981.36;109470;1252;60158;-69
2023/01/31 07:27:56;;;;;;;13.20;2.40;;;;;;;1.17;92.04;98973.55;109458;1251;73721;-71
2023/01/31 07:30:47;;;;;;;10.70;2.60;;;;;;;1.26;91.58;98976.54;109563;1251;66471;-70
2023/01/31 07:33:36;;;;;;;12.90;2.60;;;;;;;1.31;91.28;98973.30;109498;1252;72641;-70
2023/01/31 07:36:25;;;;;;;13.50;2.70;;;;;;;1.36;91.02;98976.65;109549;1252;58146;-71
2023/01/31 07:39:18;;;;;;;13.20;2.30;;;;;;;1.44;90.73;98975.70;108880;1252;1002034;-72
2023/01/31 07:42:06;;;;;;;18.20;2.60;;;;;;;1.54;90.17;98982.29;109548;1252;73898;-69
2023/01/31 07:44:56;;;;;;;13.60;2.30;;;;;;;1.65;89.44;98982.55;109564;1252;67667;-69
2023/01/31 07:47:46;;;;;;;13.70;3.30;;;;;;;1.75;88.59;98985.80;109521;1252;72448;-68
2023/01/31 07:50:35;;;;;;;10.40;2.30;;;;;;;1.94;87.82;98990.64;109485;1251;57983;-69
2023/01/31 07:53:29;;;;;;;11.00;2.30;;;;;;;2.17;87.29;98987.02;109583;1251;58245;-68
2023/01/31 07:56:21;;;;;;;11.60;2.20;;;;;;;2.40;86.31;98987.00;109518;1251;75095;-68
2023/01/31 07:59:12;;;;;;;12.50;2.30;;;;;;;2.62;84.63;98994.27;109516;1252;69179;-68
2023/01/31 08:05:09;;;;;;;13.40;2.30;;;;;;;3.11;81.81;99002.91;108815;1251;1002015;-68
2023/01/31 08:08:09;;;;;;;13.50;2.30;;;;;;;3.36;80.46;99003.77;109566;1252;58716;-68
2023/01/31 08:10:57;;;;;;;12.10;2.20;;;;;;;3.55;78.60;99006.45;109572;1252;71819;-69
2023/01/31 08:13:45;;;;;;;11.30;1.90;;;;;;;3.65;77.16;99008.59;109552;1252;68577;-66
2023/01/31 08:16:35;;;;;;;13.30;2.00;;;;;;;3.74;76.76;99011.89;109571;1251;72749;-68
2023/01/31 08:19:26;;;;;;;15.00;2.40;;;;;;;3.74;75.92;99010.46;109520;1252;58195;-68
2023/01/31 08:22:14;;;;;;;10.50;1.90;;;;;;;3.67;76.00;99011.12;109587;1252;60117;-68
2023/01/31 08:25:02;;;;;;;8.80;1.80;;;;;;;3.63;76.30;99020.30;109555;1252;74757;-69
2023/01/31 08:27:50;;;;;;;10.20;1.80;;;;;;;3.56;76.05;99026.91;109616;1252;67908;-70
2023/01/31 08:30:40;;;;;;;11.60;2.20;;;;;;;3.50;76.35;99023.77;109544;1251;71510;-69
2023/01/31 08:33:29;;;;;;;9.00;2.20;;;;;;;4.07;75.22;99028.47;109549;1251;58133;-70
2023/01/31 08:36:28;;;;;;;7.60;2.00;;;;;;;5.30;70.70;99027.83;109572;1252;60016;-71
2023/01/31 08:39:16;;;;;;;9.80;2.30;;;;;;;6.30;67.24;99023.62;109573;1252;73575;-69
2023/01/31 08:42:04;;;;;;;9.60;2.40;;;;;;;7.72;62.23;99019.30;109562;1252;67961;-71
2023/01/31 08:44:52;;;;;;;8.50;2.00;;;;;;;9.10;57.25;99014.66;109521;1252;72301;-68
2023/01/31 08:47:39;;;;;;;12.40;2.30;;;;;;;10.00;53.18;99017.98;109497;1251;58129;-68
2023/01/31 08:50:30;;;;;;;10.90;2.70;;;;;;;10.02;52.62;99020.12;109588;1252;58988;-71
2023/01/31 08:53:19;;;;;;;10.40;2.20;;;;;;;10.59;50.60;99016.98;109572;1252;73817;-69
2023/01/31 08:56:07;;;;;;;13.40;2.80;;;;;;;9.98;51.43;99023.80;108843;1251;1002871;-67
2023/01/31 08:58:56;;;;;;;8.60;2.30;;;;;;;8.98;53.10;99021.96;107369;1251;1002954;-67
2023/01/31 09:01:45;;;;;;;11.60;2.20;;;;;;;8.19;55.08;99025.17;109589;1252;58189;-67
2023/01/31 09:04:36;;;;;;;10.50;2.60;;;;;;;7.63;56.91;99026.54;109586;1252;60374;-70
2023/01/31 09:07:24;;;;;;;10.40;2.50;;;;;;;7.46;58.05;99028.46;109581;1251;74873;-68
2023/01/31 09:10:14;;;;;;;10.80;2.20;;;;;;;7.26;58.49;99025.70;109528;1251;67568;-69
2023/01/31 09:13:03;;;;;;;12.40;2.60;;;;;;;7.24;59.04;99030.59;109571;1252;73508;-70
2023/01/31 09:16:06;;;;;;;9.50;2.10;;;;;;;7.15;59.32;99034.14;109513;1251;58309;-68
2023/01/31 09:18:57;;;;;;;12.10;2.60;;;;;;;6.85;59.50;99040.02;109453;1253;59980;-68
2023/01/31 09:21:45;;;;;;;15.80;2.10;;;;;;;6.64;60.50;99044.66;109541;1252;74820;-70
2023/01/31 09:24:33;;;;;;;9.60;2.00;;;;;;;7.18;59.21;99050.46;109550;1252;66545;-70
2023/01/31 09:27:21;;;;;;;9.20;2.90;;;;;;;7.39;57.45;99045.79;109549;1252;72475;-68
2023/01/31 09:30:10;;;;;;;17.40;2.70;;;;;;;7.32;58.16;99041.60;109519;1252;58087;-68
2023/01/31 09:33:00;;;;;;;9.90;2.40;;;;;;;8.09;55.96;99050.48;109558;1252;60055;-68
2023/01/31 09:36:02;;;;;;;10.50;2.40;;;;;;;8.32;53.51;99043.67;109602;1252;72608;-67
2023/01/31 09:38:55;;;;;;;10.20;2.10;;;;;;;8.95;51.99;99048.23;109534;1252;66009;-69
2023/01/31 09:42:05;;;;;;;11.50;2.80;;;;;;;9.67;50.19;99042.73;109536;1252;72728;-69
2023/01/31 09:45:31;;;;;;;8.90;1.60;;;;;;;10.32;49.20;99043.92;109575;1253;58602;-69
2023/01/31 09:48:25;;;;;;;8.00;1.90;;;;;;;9.70;48.78;99037.54;109539;1251;58996;-72
2023/01/31 09:51:15;;;;;;;13.00;2.30;;;;;;;8.75;49.78;99043.02;109538;1252;74915;-67
2023/01/31 09:54:10;;;;;;;9.70;1.90;;;;;;;7.93;51.36;99042.81;109543;1253;67749;-68
2023/01/31 09:57:19;;;;;;;9.10;1.80;;;;;;;7.45;52.38;99047.29;109556;1251;72715;-71
2023/01/31 10:00:19;;;;;;;9.30;1.60;;;;;;;6.85;53.76;99041.76;109518;1252;58141;-69
2023/01/31 10:03:39;;;;;;;9.30;1.80;;;;;;;6.58;55.57;99056.75;109545;1251;60201;-68
2023/01/31 10:06:37;;;;;;;12.10;2.30;;;;;;;6.20;57.51;99058.40;109541;1252;72629;-68
2023/01/31 10:09:52;;;;;;;11.00;2.60;;;;;;;5.97;59.01;99053.94;109538;1251;67658;-71
2023/01/31 10:12:50;;;;;;;10.80;2.30;;;;;;;5.84;59.84;99057.85;109587;1251;72742;-68
2023/01/31 10:15:45;;;;;;;11.10;2.70;;;;;;;7.35;57.96;99053.49;109571;1251;58403;-70
2023/01/31 10:18:41;;;;;;;10.40;2.20;;;;;;;9.99;51.49;99051.67;109578;1252;61133;-69
2023/01/31 10:21:40;;;;;;;8.40;2.00;;;;;;;10.84;46.61;99047.13;109551;1252;73422;-69
2023/01/31 10:24:48;;;;;;;8.80;2.10;;;;;;;12.22;45.55;99039.33;109591;1252;67562;-69
2023/01/31 10:27:52;;;;;;;8.10;2.20;;;;;;;13.12;41.21;99033.09;109546;1253;73446;-69
2023/01/31 10:31:10;;;;;;;9.80;2.20;;;;;;;14.60;38.48;99026.87;109572;1252;58872;-69
2023/01/31 10:34:09;;;;;;;8.50;2.10;;;;;;;15.48;36.43;99018.55;109600;1252;58719;-68
2023/01/31 10:37:40;;;;;;;8.00;2.10;;;;;;;14.73;35.49;99012.36;109559;1252;72730;-67
2023/01/31 10:40:43;;;;;;;8.70;2.00;;;;;;;13.64;37.53;99016.42;109562;1253;66705;-68
2023/01/31 10:44:03;;;;;;;8.30;1.90;;;;;;;12.27;39.22;99015.94;109425;1252;71558;-69
2023/01/31 10:46:57;;;;;;;9.40;1.70;;;;;;;10.60;42.33;99018.43;109472;1252;59029;-68
2023/01/31 10:49:48;;;;;;;10.10;1.90;;;;;;;9.49;44.60;99016.77;109551;1252;60900;-68
2023/01/31 10:52:45;;;;;;;8.30;1.60;;;;;;;8.41;46.74;99013.87;109596;1253;73792;-70
2023/01/31 10:56:04;;;;;;;8.00;1.70;;;;;;;7.28;48.73;99008.58;109488;1253;66610;-69
2023/01/31 10:58:53;;;;;;;9.30;2.20;;;;;;;6.43;51.25;99012.60;109333;1253;72490;-69
2023/01/31 11:01:41;;;;;;;9.40;2.00;;;;;;;5.95;53.56;99018.34;109314;1254;58254;-68
2023/01/31 11:04:41;;;;;;;10.20;2.00;;;;;;;5.53;55.41;99013.12;109445;1254;60034;-68
2023/01/31 11:07:30;;;;;;;8.40;1.90;;;;;;;5.12;57.30;99018.21;109344;1254;74588;-69
2023/01/31 11:10:31;;;;;;;9.60;2.20;;;;;;;4.90;58.55;99007.49;109332;1256;67673;-69
2023/01/31 11:13:19;;;;;;;9.60;2.10;;;;;;;4.67;58.94;99009.92;109303;1253;73734;-69
2023/01/31 11:16:12;;;;;;;10.00;1.90;;;;;;;4.47;59.26;99006.77;108547;1254;1002857;-69
2023/01/31 11:19:29;;;;;;;8.60;1.80;;;;;;;4.29;59.51;99009.08;109453;1253;61096;-68
2023/01/31 11:22:34;;;;;;;9.60;2.00;;;;;;;4.18;59.59;99016.79;108622;1255;1002885;-70
2023/01/31 11:25:27;;;;;;;9.40;1.60;;;;;;;4.36;59.47;99016.10;109474;1257;69055;-68
2023/01/31 11:28:23;;;;;;;10.60;2.00;;;;;;;4.43;58.78;99003.52;109225;1255;73681;-69
2023/01/31 11:31:39;;;;;;;9.40;2.10;;;;;;;4.66;58.18;99002.80;109271;1256;58131;-69
2023/01/31 11:34:32;;;;;;;9.00;1.80;;;;;;;5.72;54.58;99002.40;109449;1253;59008;-70
2023/01/31 11:37:20;;;;;;;7.90;1.80;;;;;;;5.42;54.70;99000.44;108549;1253;1003063;-69
2023/01/31 11:40:14;;;;;;;10.40;2.20;;;;;;;5.25;55.30;99003.43;109501;1253;66685;-70
2023/01/31 11:43:29;;;;;;;9.00;1.80;;;;;;;5.07;56.35;99006.95;109495;1254;71589;-69
2023/01/31 11:46:17;;;;;;;10.10;2.20;;;;;;;5.03;57.06;99000.73;109446;1254;58123;-69
2023/01/31 11:49:38;;;;;;;11.30;2.70;;;;;;;4.83;57.06;98999.88;109449;1256;61095;-70
2023/01/31 11:52:34;;;;;;;10.60;2.50;;;;;;;4.74;58.28;98993.10;109465;1253;73463;-69
2023/01/31 11:55:22;;;;;;;12.40;3.10;;;;;;;4.60;59.11;98997.48;109467;1254;66593;-70
2023/01/31 11:58:36;;;;;;;11.80;2.50;;;;;;;4.50;59.92;98990.90;109322;1254;72437;-68
2023/01/31 12:01:25;;;;;;;11.70;2.30;;;;;;;4.41;59.86;98987.30;109505;1254;58174;-69
2023/01/31 12:04:39;;;;;;;12.10;2.20;;;;;;;4.32;59.32;98981.09;109314;1254;58020;-69
2023/01/31 12:07:45;;;;;;;9.80;1.90;;;;;;;4.32;59.09;98973.21;109469;1253;72609;-69
2023/01/31 12:10:44;;;;;;;11.70;2.40;;;;;;;4.31;59.04;98972.18;109327;1254;67646;-70
2023/01/31 12:14:12;;;;;;;14.70;2.60;;;;;;;4.30;59.11;98960.92;109317;1254;72432;-68
2023/01/31 12:17:00;;;;;;;12.80;2.00;;;;;;;4.19;59.58;98955.98;109426;1254;58082;-70
2023/01/31 12:20:17;;;;;;;7.60;1.90;;;;;;;4.14;60.14;98957.61;109494;1253;58722;-68
2023/01/31 12:23:30;;;;;;;8.50;1.80;;;;;;;4.05;60.88;98950.46;109356;1254;74867;-70
2023/01/31 12:26:42;;;;;;;8.70;1.80;;;;;;;3.89;61.26;98948.73;109458;1253;66662;-69
2023/01/31 12:30:15;;;;;;;9.20;2.10;;;;;;;3.75;61.77;98945.13;109279;1254;72543;-69
2023/01/31 12:33:58;;;;;;;8.90;1.80;;;;;;;3.66;63.04;98942.58;109429;1254;58139;-72
2023/01/31 12:36:50;;;;;;;8.50;1.50;;;;;;;3.58;63.22;98931.55;108904;1258;61433;-70
2023/01/31 12:39:47;;;;;;;10.20;2.40;;;;;;;3.52;63.19;98925.80;109000;1262;72932;-73
2023/01/31 12:43:00;;;;;;;14.20;2.50;;;;;;;3.53;63.57;98917.68;109059;1258;66848;-70
2023/01/31 12:45:58;;;;;;;9.40;2.10;;;;;;;3.56;63.91;98918.85;108999;1258;72234;-68
2023/01/31 12:49:51;;;;;;;11.20;2.20;;;;;;;3.59;64.86;98917.60;108969;1258;58172;-69
2023/01/31 12:53:23;;;;;;;9.80;2.10;;;;;;;3.60;66.86;98908.97;108974;1259;59208;-69
2023/01/31 12:56:27;;;;;;;11.10;2.10;;;;;;;3.52;68.88;98913.69;108281;1257;1002302;-71
2023/01/31 12:59:48;;;;;;;10.80;2.40;;;;;;;3.49;69.58;98915.14;109101;1258;68506;-69
2023/01/31 13:02:44;;;;;;;11.50;3.40;;;;;;;3.47;70.56;98903.46;109026;1257;70377;-72
2023/01/31 13:05:45;;;;;;;16.80;4.50;;;;;;;3.63;70.33;98903.48;109105;1257;58080;-69
2023/01/31 13:08:38;;;;;;;14.40;3.80;;;;;;;3.64;70.04;98895.51;109046;1257;61342;-70
2023/01/31 13:11:43;;;;;;;19.00;5.10;;;;;;;3.54;70.00;98889.33;109539;1251;73704;-69
2023/01/31 13:14:38;;;;;;;15.00;4.70;;;;;;;3.44;70.06;98883.68;109487;1251;67615;-70
2023/01/31 13:17:28;;;;;;;13.80;3.20;;;;;;;3.37;70.55;98875.21;109591;1252;72659;-70
2023/01/31 13:20:34;;;;;;;10.30;2.50;;;;;;;3.29;70.66;98865.02;108776;1251;1002516;-69
2023/01/31 13:23:30;;;;;;;18.00;2.70;;;;;;;3.29;70.68;98865.61;109566;1252;60049;-69
2023/01/31 13:26:30;;;;;;;7.80;2.30;;;;;;;3.30;69.99;98850.80;109439;1251;72435;-69
2023/01/31 13:29:37;;;;;;;8.70;2.10;;;;;;;3.30;69.64;98850.42;109586;1251;67723;-69
2023/01/31 13:32:38;;;;;;;8.40;1.70;;;;;;;3.26;70.09;98850.88;109550;1251;72349;-72
2023/01/31 13:35:34;;;;;;;11.50;2.10;;;;;;;3.20;70.34;98847.41;109488;1252;58095;-71
2023/01/31 13:38:32;;;;;;;8.40;1.90;;;;;;;3.18;70.86;98845.11;109593;1251;60113;-70
2023/01/31 13:41:30;;;;;;;9.30;2.10;;;;;;;3.17;71.10;98847.64;109564;1251;72572;-68
2023/01/31 13:44:24;;;;;;;10.20;1.90;;;;;;;3.12;72.09;98851.10;109594;1254;68904;-72
2023/01/31 13:47:19;;;;;;;11.50;2.40;;;;;;;3.03;73.62;98850.81;109587;1251;71284;-70